Ranchos De Taos, NM (87557)

8:13 AM MDT on August 28, 2014 (GMT -0600)
Weimer Foothills-Bob/Jo Freese | Change Station
CLOSE
Current Station
Personal Weather Station
Location: Ranchos De Taos, NM
Elevation: 7238 ft
Nearby Weather Stations

Elev 7238 ft 36.36 °N, 105.57 °W | Updated 3 minutes ago

Clear
Clear
56.0 °F
Feels Like 56.0 °F
N
0.0
Wind Variable Wind from West
Gusts 0.0 mph

Today
High -- | Low -- °F
--% Chance of Precip.
Yesterday
High -- | Low -- °F
Precip. -- in
6:30 AM 7:35 PM
Waxing Crescent, 8% visible
Pressure 30.35 in
Visibility 10.0 miles
Clouds Clear
Dew Point 44 °F
Humidity 64%
Rainfall 0.00 in
Snow Depth 1 in
UV 1 out of 12
Pollen 9.80 out of 12
Air Quality Not available.
Flu Activity Not available.
METAR KAXX 281350Z AUTO 23011KT 10SM CLR 07/03 A3035 RMK AO2 T00670030

More Conditions Fewer Conditions

Pressure 30.35 in
Visibility 10.0 miles
Clouds Clear
Dew Point 44 °F
Humidity 64%
Rainfall 0.00 in
Snow Depth 1 in
UV 1 out of 12
Pollen 9.80 out of 12
Air Quality Not available.
Flu Activity Not available.
METAR KAXX 281350Z AUTO 23011KT 10SM CLR 07/03 A3035 RMK AO2 T00670030

More Conditions Fewer Conditions

10-Day Weather Forecast

Almanac

Astronomy

Aug. 28, 2014 Rise Set
Actual Time 6:30 AM MDT 7:35 PM MDT
Civil Twilight 6:04 AM MDT 8:02 PM MDT
Nautical Twilight 5:32 AM MDT 8:33 PM MDT
Astronomical Twilight 5:00 AM MDT 9:06 PM MDT
Moon 9:19 AM MDT 9:08 PM MDT
Length of Visible Light 13h 57m
Length of Day
13h 05m
Tomorrow will be 2m 12s shorter.
Waxing Crescent, 8% of the Moon is Illuminated
Today
Waxing Crescent
Sep 2
First Quarter
Sep 8
Full
Sep 15
Last Quarter
Sep 24
New

Today's Extremes

State Highs State Lows

Community

WunderPhotos

Upload Photos

1,747,958 photos uploaded!

Nearby

Snow Depth

Station Depth Elevation
Gallegos Peak 1 in 9800 ft
Tolby 1 in 10180 ft
Red River Pass #2 0 in 9850 ft
Wesner Springs 2 in 11120 ft
Santa Fe 0 in 11445 ft

Earthquake Activity

City Distance Mag. Time & Date
No recent earthquake activity has been reported nearby.
Minimum magnitude displayed is 2.5.

Coastal Water Temperatures

Place Temperature
No Stations Reporting

Nearby Weather Stations